sensor_id;sensor_type;location;lat;lon;timestamp;pressure;altitude;pressure_sealevel;temperature;humidity
46382;BME280;66809;52.974;-2.514;2023-02-21T00:01:35;1012.9515928030966;;;7.349508820285494;40.63986712278555
46382;BME280;66809;52.974;-2.514;2023-02-21T00:03:34;1012.9524400273997;;;7.332522678218068;40.629899670296695
46382;BME280;66809;52.974;-2.514;2023-02-21T00:05:34;1012.9506812554403;;;7.313894866187872;40.618860981558676
46382;BME280;66809;52.974;-2.514;2023-02-21T00:07:35;1012.9466707679398;;;7.3020173472622725;40.60967654155572
46382;BME280;66809;52.974;-2.514;2023-02-21T00:09:38;1012.9428410033593;;;7.283015513381495;40.60762184242011
46382;BME280;66809;52.974;-2.514;2023-02-21T00:11:34;1012.938756595438;;;7.270926153564785;40.60800722468489
46382;BME280;66809;52.974;-2.514;2023-02-21T00:13:35;1012.9345905085964;;;7.2558274943863035;40.61200591990275
46382;BME280;66809;52.974;-2.514;2023-02-21T00:15:34;1012.9319213524861;;;7.236747767951207;40.618249762680676
46382;BME280;66809;52.974;-2.514;2023-02-21T00:17:35;1012.9291540909759;;;7.220947644377066;40.62556742522723
46382;BME280;66809;52.974;-2.514;2023-02-21T00:19:34;1012.9264966129917;;;7.209259873251833;40.63503413445448
46382;BME280;66809;52.974;-2.514;2023-02-21T00:21:34;1012.9238149016695;;;7.19569101956221;40.64831234843002
46382;BME280;66809;52.974;-2.514;2023-02-21T00:23:35;1012.9211124139258;;;7.1818834176070165;40.65836661762076
46382;BME280;66809;52.974;-2.514;2023-02-21T00:25:34;1012.9175074798289;;;7.163568920087321;40.66959176342369
46382;BME280;66809;52.974;-2.514;2023-02-21T00:27:35;1012.91357726153;;;7.152475812108551;40.680036596163376
46382;BME280;66809;52.974;-2.514;2023-02-21T00:29:34;1012.9095490897872;;;7.141644618614814;40.69497746940345
46382;BME280;66809;52.974;-2.514;2023-02-21T00:31:34;1012.9062450732541;;;7.128600921240685;40.70991893407225
46382;BME280;66809;52.974;-2.514;2023-02-21T00:33:35;1012.9026557243129;;;7.115681457846778;40.72476419732818
46382;BME280;66809;52.974;-2.514;2023-02-21T00:35:34;1012.9008712714287;;;7.109731853565791;40.73990331520074
46382;BME280;66809;52.974;-2.514;2023-02-21T00:37:34;1012.8996661419752;;;7.1025962384560035;40.75504160445942
46382;BME280;66809;52.974;-2.514;2023-02-21T00:39:35;1012.8968435089733;;;7.096634521469567;40.76705431993807
46382;BME280;66809;52.974;-2.514;2023-02-21T00:41:34;1012.8915801153261;;;7.088251782280873;40.77994491249379
46382;BME280;66809;52.974;-2.514;2023-02-21T00:43:35;1012.8866077540224;;;7.086314401664717;40.79439919041577
46382;BME280;66809;52.974;-2.514;2023-02-21T00:45:34;1012.8816915181461;;;7.087813078897551;40.80133156760563
46382;BME280;66809;52.974;-2.514;2023-02-21T00:47:34;1012.8771810060608;;;7.0817968912369285;40.80953263425611
46382;BME280;66809;52.974;-2.514;2023-02-21T00:49:34;1012.8725685978887;;;7.078661368776955;40.81861355131343
46382;BME280;66809;52.974;-2.514;2023-02-21T00:51:35;1012.867072481788;;;7.085582229765021;40.82701062632893
46382;BME280;66809;52.974;-2.514;2023-02-21T00:53:34;1012.8606182172815;;;7.091501759202221;40.8342363273025
46382;BME280;66809;52.974;-2.514;2023-02-21T00:55:34;1012.8533107346218;;;7.096803451823394;40.84409764762051
46382;BME280;66809;52.974;-2.514;2023-02-21T00:57:35;1012.845815358363;;;7.103950930365788;40.85522825543424
46382;BME280;66809;52.974;-2.514;2023-02-21T00:59:34;1012.8373647303923;;;7.111825028598819;40.866358956958294
46382;BME280;66809;52.974;-2.514;2023-02-21T01:01:34;1012.8274244435826;;;7.114049238645306;40.87514564227937
46382;BME280;66809;52.974;-2.514;2023-02-21T01:03:34;1012.8174483255999;;;7.11379371828308;40.886763128278155
46382;BME280;66809;52.974;-2.514;2023-02-21T01:05:34;1012.8081375886555;;;7.112001992636674;40.90570327268645
46382;BME280;66809;52.974;-2.514;2023-02-21T01:07:35;1012.7984737817013;;;7.11578292588356;40.92298349331982
46382;BME280;66809;52.974;-2.514;2023-02-21T01:09:35;1012.7885483732332;;;7.118516851686238;40.93313781730256
46382;BME280;66809;52.974;-2.514;2023-02-21T01:11:34;1012.777454108799;;;7.11561699758847;40.940069535490025
46382;BME280;66809;52.974;-2.514;2023-02-21T01:13:34;1012.7653403756763;;;7.115848686087937;40.945340810956644
46382;BME280;66809;52.974;-2.514;2023-02-21T01:15:35;1012.7516144020021;;;7.113107039664261;40.947974556501116
46382;BME280;66809;52.974;-2.514;2023-02-21T01:17:34;1012.737034095759;;;7.114666853732376;40.9563619780185
46382;BME280;66809;52.974;-2.514;2023-02-21T01:19:34;1012.7218876845144;;;7.108932458620497;40.96464857767554
46382;BME280;66809;52.974;-2.514;2023-02-21T01:21:35;1012.7072231360263;;;7.090779791694973;40.97751616092832
46382;BME280;66809;52.974;-2.514;2023-02-21T01:23:34;1012.6928973363979;;;7.080697381771993;40.99272471402163
46382;BME280;66809;52.974;-2.514;2023-02-21T01:25:34;1012.6799267887726;;;7.073716286700359;41.00890647454739
46382;BME280;66809;52.974;-2.514;2023-02-21T01:27:35;1012.6668198321055;;;7.0541194308176625;41.0281130462506
46382;BME280;66809;52.974;-2.514;2023-02-21T01:29:35;1012.6523602466892;;;7.038248786770279;41.04946411166536
46382;BME280;66809;52.974;-2.514;2023-02-21T01:31:34;1012.6373279810127;;;7.02226229508092;41.070523697252185
46382;BME280;66809;52.974;-2.514;2023-02-21T01:33:36;1012.6211089002281;;;7.020528825619522;41.091782596467894
46382;BME280;66809;52.974;-2.514;2023-02-21T01:35:35;1012.6039402116196;;;7.0061795920128835;41.113725866021454
46382;BME280;66809;52.974;-2.514;2023-02-21T01:37:34;1012.5863511818552;;;6.996390645753004;41.135279068270314
46382;BME280;66809;52.974;-2.514;2023-02-21T01:39:34;1012.5686083320376;;;6.980852084215892;41.16063574723675
46382;BME280;66809;52.974;-2.514;2023-02-21T01:41:35;1012.5511786741699;;;6.96882349472484;41.18403875398276
46382;BME280;66809;52.974;-2.514;2023-02-21T01:43:34;1012.5321919398878;;;6.950937163200729;41.20919712043094
46382;BME280;66809;52.974;-2.514;2023-02-21T01:45:43;1012.5131525866459;;;6.933359748998313;41.233576111237454
46382;BME280;66809;52.974;-2.514;2023-02-21T01:47:34;1012.4956128331918;;;6.922157510648699;41.250834981627946
46382;BME280;66809;52.974;-2.514;2023-02-21T01:49:37;1012.478959165835;;;6.9028148433453485;41.26175475288215
46382;BME280;66809;52.974;-2.514;2023-02-21T01:51:40;1012.4621832623532;;;6.895014450722337;41.271306721391085
46382;BME280;66809;52.974;-2.514;2023-02-21T01:53:34;1012.4450136370663;;;6.876378989572797;41.27890544833348
46382;BME280;66809;52.974;-2.514;2023-02-21T01:55:36;1012.428549784969;;;6.852349169749808;41.285624436921175
46382;BME280;66809;52.974;-2.514;2023-02-21T01:57:35;1012.4104581422137;;;6.836937936903386;41.29409808058226
46382;BME280;66809;52.974;-2.514;2023-02-21T01:59:34;1012.3906568936453;;;6.822059586960534;41.303155607668096
46382;BME280;66809;52.974;-2.514;2023-02-21T02:01:38;1012.371130738666;;;6.812846569741676;41.3133879983928
46382;BME280;66809;52.974;-2.514;2023-02-21T02:03:34;1012.3524740405169;;;6.8035331554228655;41.31688827500157
46382;BME280;66809;52.974;-2.514;2023-02-21T02:05:36;1012.3347482578881;;;6.789311260556558;41.312191922952856
46382;BME280;66809;52.974;-2.514;2023-02-21T02:07:35;1012.3188904430955;;;6.768783695400552;41.30339665623687
46382;BME280;66809;52.974;-2.514;2023-02-21T02:09:34;1012.3040988488294;;;6.758933433603159;41.29762673532675
46382;BME280;66809;52.974;-2.514;2023-02-21T02:11:52;1012.2912284534426;;;6.742348327688277;41.29410143629446
46382;BME280;66809;52.974;-2.514;2023-02-21T02:13:48;1012.2788144218634;;;6.71361150197991;41.29311201261688
46382;BME280;66809;52.974;-2.514;2023-02-21T02:15:42;1012.2677460419401;;;6.70122768010231;41.29612315793672
46382;BME280;66809;52.974;-2.514;2023-02-21T02:17:42;1012.2588957115947;;;6.6896355649106365;41.291234764066566
46382;BME280;66809;52.974;-2.514;2023-02-21T02:20:34;1012.2498819184078;;;6.6809163805435325;41.28449568092196
46382;BME280;66809;52.974;-2.514;2023-02-21T02:22:02;1012.2407622050594;;;6.683419070456234;41.273174805250015
46382;BME280;66809;52.974;-2.514;2023-02-21T02:24:28;1012.2314768598964;;;6.675429802864894;41.259709911049114
46382;BME280;66809;52.974;-2.514;2023-02-21T02:25:51;1012.222143072953;;;6.669595231569078;41.24244280913321
46382;BME280;66809;52.974;-2.514;2023-02-21T02:28:05;1012.2137196791032;;;6.680028706375097;41.22088559826974
46382;BME280;66809;52.974;-2.514;2023-02-21T02:29:50;1012.2054554968242;;;6.674097699596187;41.19289112797996
46382;BME280;66809;52.974;-2.514;2023-02-21T02:31:44;1012.1964730868199;;;6.672487570897117;41.16313885879773
46382;BME280;66809;52.974;-2.514;2023-02-21T02:34:01;1012.1892265409547;;;6.663521452735697;41.12635751036717
46382;BME280;66809;52.974;-2.514;2023-02-21T02:35:37;1012.1827855002011;;;6.658988093261072;41.079525671204216
46382;BME280;66809;52.974;-2.514;2023-02-21T02:37:38;1012.175947869269;;;6.641627154102542;41.03737743966012
46382;BME280;66809;52.974;-2.514;2023-02-21T02:39:40;1012.1684914032434;;;6.6379470844897295;40.99913582528078
46382;BME280;66809;52.974;-2.514;2023-02-21T02:41:45;1012.1588933445129;;;6.629266523442913;40.966065786195195
46382;BME280;66809;52.974;-2.514;2023-02-21T02:43:40;1012.1495456524164;;;6.621628557098924;40.937873273539
46382;BME280;66809;52.974;-2.514;2023-02-21T02:45:38;1012.1400147502619;;;6.6152494251616485;40.910461197191005
46382;BME280;66809;52.974;-2.514;2023-02-21T02:47:36;1012.1294459659972;;;6.612056558518763;40.88509506399286
46382;BME280;66809;52.974;-2.514;2023-02-21T02:49:38;1012.1179637684013;;;6.617760301973378;40.86948285362236
46382;BME280;66809;52.974;-2.514;2023-02-21T02:51:35;1012.1070268880317;;;6.613026148925521;40.84636102215315
46382;BME280;66809;52.974;-2.514;2023-02-21T02:53:34;1012.0967222868269;;;6.605739668507312;40.82958117587585
46382;BME280;66809;52.974;-2.514;2023-02-21T02:55:39;1012.0864235898342;;;6.609141518496457;40.80938934681587
46382;BME280;66809;52.974;-2.514;2023-02-21T02:57:35;1012.0766384229371;;;6.599912821068063;40.786174144810914
46382;BME280;66809;52.974;-2.514;2023-02-21T02:59:35;1012.0681047724295;;;6.599117360170536;40.757496269097864
46382;BME280;66809;52.974;-2.514;2023-02-21T03:01:51;1012.0599117347904;;;6.602635053966649;40.73662168062579
46382;BME280;66809;52.974;-2.514;2023-02-21T03:03:46;1012.0500390846051;;;6.602526933070345;40.7215998259103
46382;BME280;66809;52.974;-2.514;2023-02-21T03:05:45;1012.0394557766737;;;6.60438043441961;40.712918974208755
46382;BME280;66809;52.974;-2.514;2023-02-21T03:07:44;1012.0280309308154;;;6.612786737746415;40.70853096848324
46382;BME280;66809;52.974;-2.514;2023-02-21T03:09:43;1012.0153071735069;;;6.614041809735517;40.70628989428501
46382;BME280;66809;52.974;-2.514;2023-02-21T03:11:40;1012.0013669031766;;;6.621857407506943;40.70336736593648
46382;BME280;66809;52.974;-2.514;2023-02-21T03:13:39;1011.9873198938839;;;6.629951030130122;40.698592706380076
46382;BME280;66809;52.974;-2.514;2023-02-21T03:15:39;1011.971992783047;;;6.636978889162392;40.68806280475735
46382;BME280;66809;52.974;-2.514;2023-02-21T03:17:41;1011.9549162315749;;;6.639006254702258;40.677141341811804
46382;BME280;66809;52.974;-2.514;2023-02-21T03:19:37;1011.9380582298014;;;6.640593414263022;40.66446295155505
46382;BME280;66809;52.974;-2.514;2023-02-21T03:21:37;1011.9208081321789;;;6.640566482340816;40.650613293407446
46382;BME280;66809;52.974;-2.514;2023-02-21T03:23:36;1011.9035651166953;;;6.637364768678761;40.635200865969296
46382;BME280;66809;52.974;-2.514;2023-02-21T03:25:36;1011.8860358282352;;;6.638449741640782;40.61890909195096
46382;BME280;66809;52.974;-2.514;2023-02-21T03:27:35;1011.8687100605274;;;6.625317008582231;40.60612732611928
46382;BME280;66809;52.974;-2.514;2023-02-21T03:29:35;1011.8535426115155;;;6.616416246378421;40.59724771384274
46382;BME280;66809;52.974;-2.514;2023-02-21T03:31:38;1011.839009185471;;;6.608940269871349;40.59061187098981
46382;BME280;66809;52.974;-2.514;2023-02-21T03:33:35;1011.8235250995183;;;6.5974097751804655;40.59002755999132
46382;BME280;66809;52.974;-2.514;2023-02-21T03:35:34;1011.8077300045554;;;6.580940588505879;40.60066187041148
46382;BME280;66809;52.974;-2.514;2023-02-21T03:37:37;1011.7925603018067;;;6.569070320325749;40.61314055173343
46382;BME280;66809;52.974;-2.514;2023-02-21T03:39:35;1011.7783872618594;;;6.553080635388441;40.62502877562905
46382;BME280;66809;52.974;-2.514;2023-02-21T03:41:34;1011.7661272606098;;;6.541658970121596;40.63320925415541
46382;BME280;66809;52.974;-2.514;2023-02-21T03:43:34;1011.7531778977954;;;6.529533866941563;40.63894801144943
46382;BME280;66809;52.974;-2.514;2023-02-21T03:45:35;1011.7401557253961;;;6.5096203076471095;40.63952258283559
46382;BME280;66809;52.974;-2.514;2023-02-21T03:47:34;1011.7273785548737;;;6.485999761982882;40.64204666648151
46382;BME280;66809;52.974;-2.514;2023-02-21T03:49:35;1011.7145805676344;;;6.465739835249338;40.649045039221505
46382;BME280;66809;52.974;-2.514;2023-02-21T03:51:34;1011.7020518033513;;;6.443981666005624;40.66852089384871
46382;BME280;66809;52.974;-2.514;2023-02-21T03:53:34;1011.6907732096502;;;6.422068382802075;40.68224214361304
46382;BME280;66809;52.974;-2.514;2023-02-21T03:55:35;1011.6796264670116;;;6.394637180846709;40.70366105657908
46382;BME280;66809;52.974;-2.514;2023-02-21T03:57:35;1011.6697067312165;;;6.371032591875749;40.72362023497954
46382;BME280;66809;52.974;-2.514;2023-02-21T03:59:34;1011.6585775114248;;;6.346377696232379;40.747868028022836
46382;BME280;66809;52.974;-2.514;2023-02-21T04:01:34;1011.6461091792543;;;6.311567361671555;40.76197809407017
46382;BME280;66809;52.974;-2.514;2023-02-21T04:03:34;1011.6345073068962;;;6.282372075378887;40.77559673322633
46382;BME280;66809;52.974;-2.514;2023-02-21T04:05:34;1011.6231951212725;;;6.257856716485872;40.793491880010684
46382;BME280;66809;52.974;-2.514;2023-02-21T04:07:34;1011.6113889661658;;;6.217528983997186;40.80904485192267
46382;BME280;66809;52.974;-2.514;2023-02-21T04:09:35;1011.6002078000547;;;6.183348521530108;40.82828821650727
46382;BME280;66809;52.974;-2.514;2023-02-21T04:11:34;1011.5896125530036;;;6.142900356257256;40.84674826421417
46382;BME280;66809;52.974;-2.514;2023-02-21T04:13:34;1011.578762599094;;;6.108808643309762;40.86812054565613
46382;BME280;66809;52.974;-2.514;2023-02-21T04:15:35;1011.5684061344389;;;6.0661987447430175;40.89319527989322
46382;BME280;66809;52.974;-2.514;2023-02-21T04:17:34;1011.5579359345886;;;6.031025835086964;40.91661795439679
46382;BME280;66809;52.974;-2.514;2023-02-21T04:19:34;1011.5466613483189;;;5.989354206177268;40.946465096023914
46382;BME280;66809;52.974;-2.514;2023-02-21T04:21:34;1011.5360384340961;;;5.955752860541887;40.97845033394247
46382;BME280;66809;52.974;-2.514;2023-02-21T04:23:35;1011.5252295422092;;;5.926210498161053;41.00995263875116
46382;BME280;66809;52.974;-2.514;2023-02-21T04:25:34;1011.5145424235512;;;5.891698569333469;41.04913783191052
46382;BME280;66809;52.974;-2.514;2023-02-21T04:27:34;1011.5021406017521;;;5.855405951956107;41.09493175217404
46382;BME280;66809;52.974;-2.514;2023-02-21T04:29:34;1011.4877129384262;;;5.822550685572572;41.132850892002985
46382;BME280;66809;52.974;-2.514;2023-02-21T04:31:34;1011.4732218991919;;;5.779126230298177;41.172714568596774
46382;BME280;66809;52.974;-2.514;2023-02-21T04:33:35;1011.4606094303184;;;5.750375109766382;41.21414150850485
46382;BME280;66809;52.974;-2.514;2023-02-21T04:35:34;1011.4476584050684;;;5.7255317747464245;41.250897493423416
46382;BME280;66809;52.974;-2.514;2023-02-21T04:37:34;1011.4348317410706;;;5.704233242348929;41.28209778550054
46382;BME280;66809;52.974;-2.514;2023-02-21T04:39:35;1011.4216279241119;;;5.682123825317047;41.30920226650992
46382;BME280;66809;52.974;-2.514;2023-02-21T04:41:34;1011.408777591862;;;5.656210324607696;41.329302797250605
46382;BME280;66809;52.974;-2.514;2023-02-21T04:43:34;1011.3959191660499;;;5.635715002295393;41.35319135502935
46382;BME280;66809;52.974;-2.514;2023-02-21T04:45:34;1011.382328259183;;;5.6166638605092505;41.387299921684196
46382;BME280;66809;52.974;-2.514;2023-02-21T04:47:34;1011.3694312634888;;;5.600593739865662;41.42102301406181
46382;BME280;66809;52.974;-2.514;2023-02-21T04:49:35;1011.3572167336905;;;5.578545602099718;41.45220659331463
46382;BME280;66809;52.974;-2.514;2023-02-21T04:51:34;1011.3450639209311;;;5.553766838116107;41.482509083409994
46382;BME280;66809;52.974;-2.514;2023-02-21T04:53:34;1011.3316209207013;;;5.537391078348401;41.508923799431905
46382;BME280;66809;52.974;-2.514;2023-02-21T04:55:35;1011.3182078949609;;;5.521277903838258;41.528136943358604
46382;BME280;66809;52.974;-2.514;2023-02-21T04:57:34;1011.3046578423284;;;5.50417621209802;41.55328069366854
46382;BME280;66809;52.974;-2.514;2023-02-21T04:59:34;1011.29180046094;;;5.485430220383108;41.58211187254671
46382;BME280;66809;52.974;-2.514;2023-02-21T05:01:34;1011.2800657849333;;;5.466753093209227;41.6209579006264
46382;BME280;66809;52.974;-2.514;2023-02-21T05:03:35;1011.2682023455034;;;5.441758134947679;41.65756874402976
46382;BME280;66809;52.974;-2.514;2023-02-21T05:05:34;1011.2568003877306;;;5.412044618880122;41.68951269744484
46382;BME280;66809;52.974;-2.514;2023-02-21T05:07:34;1011.2457334318498;;;5.39546754156297;41.72282803163446
46382;BME280;66809;52.974;-2.514;2023-02-21T05:09:35;1011.2347714809551;;;5.3823039518455476;41.75167289441511
46382;BME280;66809;52.974;-2.514;2023-02-21T05:11:34;1011.2241135015677;;;5.37541576498525;41.77546869044407
46382;BME280;66809;52.974;-2.514;2023-02-21T05:13:34;1011.2138780388043;;;5.368337758956547;41.7969353909648
46382;BME280;66809;52.974;-2.514;2023-02-21T05:15:35;1011.2034906821748;;;5.360680542710919;41.822870654745216
46382;BME280;66809;52.974;-2.514;2023-02-21T05:17:34;1011.1934890258909;;;5.345756230085302;41.84978445917075
46382;BME280;66809;52.974;-2.514;2023-02-21T05:19:34;1011.18493758618;;;5.342354289262957;41.876798817389655
46382;BME280;66809;52.974;-2.514;2023-02-21T05:21:35;1011.1766051530298;;;5.338600998514524;41.90440663890046
46382;BME280;66809;52.974;-2.514;2023-02-21T05:23:34;1011.1681826461994;;;5.334882499261862;41.930763496731046
46382;BME280;66809;52.974;-2.514;2023-02-21T05:25:35;1011.1586807945688;;;5.33578159602791;41.95333704012456
46382;BME280;66809;52.974;-2.514;2023-02-21T05:27:34;1011.1501333639192;;;5.33650371753714;41.97182762302941
46382;BME280;66809;52.974;-2.514;2023-02-21T05:29:35;1011.1419371287045;;;5.343044296087012;42.00091987345114
46382;BME280;66809;52.974;-2.514;2023-02-21T05:31:34;1011.1339475371061;;;5.3601039305654705;42.02895045897897
46382;BME280;66809;52.974;-2.514;2023-02-21T05:33:34;1011.1254553006115;;;5.364332216906636;42.05999850428396
46382;BME280;66809;52.974;-2.514;2023-02-21T05:35:34;1011.1171950193257;;;5.369688036059889;42.09270296807564
46382;BME280;66809;52.974;-2.514;2023-02-21T05:37:35;1011.1103040521488;;;5.375738910700081;42.127550441511566
46382;BME280;66809;52.974;-2.514;2023-02-21T05:39:34;1011.1046770974882;;;5.381823928320545;42.16454834285508
46382;BME280;66809;52.974;-2.514;2023-02-21T05:41:34;1011.0983361991958;;;5.400258311209488;42.208656626000106
46382;BME280;66809;52.974;-2.514;2023-02-21T05:43:35;1011.0924949469093;;;5.420924597837779;42.243146264269896
46382;BME280;66809;52.974;-2.514;2023-02-21T05:45:34;1011.0884096142995;;;5.431261084151968;42.272392925712815
46382;BME280;66809;52.974;-2.514;2023-02-21T05:47:34;1011.0829655582708;;;5.4473240125235245;42.30008754610984
46382;BME280;66809;52.974;-2.514;2023-02-21T05:49:34;1011.0779474998938;;;5.457540198494852;42.321759738197365
46382;BME280;66809;52.974;-2.514;2023-02-21T05:51:36;1011.0720415559873;;;5.476058992499928;42.33925171816038
46382;BME280;66809;52.974;-2.514;2023-02-21T05:53:34;1011.0665622863576;;;5.504100601671084;42.36180402244267
46382;BME280;66809;52.974;-2.514;2023-02-21T05:55:35;1011.0605233985174;;;5.527577461830333;42.38572580824876
46382;BME280;66809;52.974;-2.514;2023-02-21T05:57:37;1011.0543639266234;;;5.546528187698874;42.40333579540258
46382;BME280;66809;52.974;-2.514;2023-02-21T05:59:36;1011.0493912625296;;;5.573036310184201;42.41424672432966
46382;BME280;66809;52.974;-2.514;2023-02-21T06:01:34;1011.044270068738;;;5.610071209167714;42.41865093700631
46382;BME280;66809;52.974;-2.514;2023-02-21T06:03:34;1011.0402263007056;;;5.648264537111797;42.423347878848126
46382;BME280;66809;52.974;-2.514;2023-02-21T06:05:34;1011.0335780215361;;;5.678409468665762;42.42249383657444
46382;BME280;66809;52.974;-2.514;2023-02-21T06:07:34;1011.0267466802472;;;5.709084026493333;42.42133971398818
46382;BME280;66809;52.974;-2.514;2023-02-21T06:09:35;1011.018531746764;;;5.7419177279153155;42.42028038256654
46382;BME280;66809;52.974;-2.514;2023-02-21T06:11:36;1011.0112642316467;;;5.76359909634345;42.42309929359321
46382;BME280;66809;52.974;-2.514;2023-02-21T06:13:35;1011.002708607616;;;5.780240716768387;42.42299627409268
46382;BME280;66809;52.974;-2.514;2023-02-21T06:15:34;1010.9945981085195;;;5.80068643242442;42.41618512278862
46382;BME280;66809;52.974;-2.514;2023-02-21T06:17:35;1010.9870813838162;;;5.827032292998642;42.41150449489673
46382;BME280;66809;52.974;-2.514;2023-02-21T06:19:34;1010.978817531851;;;5.841909833296734;42.40273324663026
46382;BME280;66809;52.974;-2.514;2023-02-21T06:21:35;1010.9701162061716;;;5.86224797936199;42.39288552895142
46382;BME280;66809;52.974;-2.514;2023-02-21T06:23:34;1010.9609400806457;;;5.878215000610227;42.38418827154274
46382;BME280;66809;52.974;-2.514;2023-02-21T06:25:34;1010.9514876874736;;;5.885953383066402;42.37450879854093
46382;BME280;66809;52.974;-2.514;2023-02-21T06:27:35;1010.9418203690183;;;5.900750338295135;42.359960959357295
46382;BME280;66809;52.974;-2.514;2023-02-21T06:29:34;1010.9329034261121;;;5.909203031167176;42.34443611046822
46382;BME280;66809;52.974;-2.514;2023-02-21T06:31:34;1010.9238003219817;;;5.911480714752997;42.32627593949727
46382;BME280;66809;52.974;-2.514;2023-02-21T06:33:35;1010.9149314038291;;;5.923887405190067;42.30635800655899
46382;BME280;66809;52.974;-2.514;2023-02-21T06:35:34;1010.9054444324657;;;5.925388893808256;42.28944771270358
46382;BME280;66809;52.974;-2.514;2023-02-21T06:37:34;1010.8940131714347;;;5.929080410148358;42.270684685320425
46382;BME280;66809;52.974;-2.514;2023-02-21T06:39:34;1010.8823186594816;;;5.9349921938958206;42.24967660408091
46382;BME280;66809;52.974;-2.514;2023-02-21T06:41:35;1010.8714522182871;;;5.927296434482141;42.231085337656836
46382;BME280;66809;52.974;-2.514;2023-02-21T06:43:35;1010.8592715642935;;;5.917075305132461;42.212971295547824
46382;BME280;66809;52.974;-2.514;2023-02-21T06:45:34;1010.8443809596488;;;5.921937332516614;42.19455840521027
46382;BME280;66809;52.974;-2.514;2023-02-21T06:47:34;1010.8308237607263;;;5.9172302059088935;42.17652962693674
46382;BME280;66809;52.974;-2.514;2023-02-21T06:49:35;1010.815572510955;;;5.914481418553453;42.15907943891095
46382;BME280;66809;52.974;-2.514;2023-02-21T06:51:35;1010.8009024263737;;;5.900364710777649;42.14123340743101
46382;BME280;66809;52.974;-2.514;2023-02-21T06:53:34;1010.7857310772574;;;5.884864961239576;42.12289433736097
46382;BME280;66809;52.974;-2.514;2023-02-21T06:55:34;1010.7715902558266;;;5.871211613199457;42.09989033558656
46382;BME280;66809;52.974;-2.514;2023-02-21T06:57:35;1010.7578094350586;;;5.875684216212034;42.072410578313665
46382;BME280;66809;52.974;-2.514;2023-02-21T06:59:34;1010.742772809024;;;5.856712425381953;42.04716139194898
46382;BME280;66809;52.974;-2.514;2023-02-21T07:01:34;1010.7275143105003;;;5.8445180290372;42.01724537041625
46382;BME280;66809;52.974;-2.514;2023-02-21T07:03:38;1010.7110831024748;;;5.821599314461797;41.98557802307862
46382;BME280;66809;52.974;-2.514;2023-02-21T07:05:34;1010.6963792879674;;;5.813247629409884;41.954688731702966
46382;BME280;66809;52.974;-2.514;2023-02-21T07:07:35;1010.6816437647342;;;5.802227104636751;41.920589082073434
46382;BME280;66809;52.974;-2.514;2023-02-21T07:09:34;1010.667402169841;;;5.789194834500284;41.88074711627193
46382;BME280;66809;52.974;-2.514;2023-02-21T07:11:35;1010.6525970394408;;;5.78052532845592;41.83828189652491